Island Escape — C6SK4 — position and weather

sailwx.info

Track history (hours):
 
Tides and Currents Weather Stations Pressure Air Temp Water Temp Dewpoint Dewpoint Depression Visibility Wind Speed Wind Dir Waves Ship Positions

Island Escape

Operator: V Ships Leisure SAM

Last reported at 2014-Jul-30 02:14 UTC. Time now 2014-Jul-30 23:27 UTC.
Position N 38°56' E 003°55'.

Length 185 m; draft 7.3 m.

Type: Passenger vessel. MMSI: 311368000.

Date/timePositionNaut miles runAvg speedWind from/ knotsBaromVisibWave heightAir tempDewpointWater temp
2014-Jul-30 02:14N 38°56' E 003°55'1116.1
2014-Jul-30 01:33N 38°57' E 003°41'1616.2
2014-Jul-30 00:33N 38°59' E 003°20'1616.4
2014-Jul-29 23:33N 39°01' E 002°59'1414.5
2014-Jul-29 22:33N 39°11' E 002°45'1514.8
2014-Jul-29 21:33N 39°25' E 002°40'8 8.1
2014-Jul-29 20:31N 39°33' E 002°38'0 0.0
2014-Jul-29 19:31N 39°33' E 002°38'0 0.0
2014-Jul-29 18:31N 39°33' E 002°38'0 0.0
2014-Jul-29 17:31N 39°33' E 002°38'0 0.0
2014-Jul-29 16:31N 39°33' E 002°38'0 0.0
2014-Jul-29 15:31N 39°33' E 002°38'0 0.0
2014-Jul-29 14:31N 39°33' E 002°38'0 0.0
2014-Jul-29 13:31N 39°33' E 002°38'0 0.0
2014-Jul-29 12:31N 39°33' E 002°38'0 0.0
2014-Jul-29 11:31N 39°33' E 002°38'0 0.0
2014-Jul-29 10:31N 39°33' E 002°38'0 0.0
2014-Jul-29 09:28N 39°33' E 002°38'0 0.0
2014-Jul-29 08:31N 39°33' E 002°38'0 0.0
2014-Jul-29 07:31N 39°33' E 002°38'0 0.0
2014-Jul-29 06:31N 39°33' E 002°38'0 0.0
2014-Jul-29 05:31N 39°33' E 002°38'0 0.0
2014-Jul-29 04:31N 39°33' E 002°38'0 0.2
2014-Jul-29 03:33N 39°33' E 002°38'6 6.1
2014-Jul-29 02:33N 39°27' E 002°35'1212.2
2014-Jul-29 01:33N 39°30' E 002°20'1111.2
2014-Jul-29 00:33N 39°41' E 002°17'1312.6
2014-Jul-28 23:33N 39°53' E 002°21'1313.3
2014-Jul-28 22:33N 40°06' E 002°25'1313.5
2014-Jul-28 21:33N 40°19' E 002°29'1313.0
2014-Jul-28 20:33N 40°32' E 002°35'1212.3
2014-Jul-28 19:33N 40°43' E 002°40'1716.8
2014-Jul-28 18:33N 40°59' E 002°47'1717.1
2014-Jul-28 17:33N 41°16' E 002°53'36 3.2
2014-Jul-28 06:14N 41°51' E 003°07'7 9.2
2014-Jul-28 05:26N 41°52' E 003°17'1112.5
2014-Jul-28 04:33N 41°57' E 003°30'1413.4
2014-Jul-28 03:30N 42°02' E 003°48'1313.8
2014-Jul-28 02:32N 42°08' E 004°04'1513.6
2014-Jul-28 01:26N 42°14' E 004°22'1313.5
2014-Jul-28 00:26N 42°19' E 004°39'1213.6
2014-Jul-27 23:32N 42°24' E 004°54'1313.7
2014-Jul-27 22:33N 42°30' E 005°11'1212.1
2014-Jul-27 21:33N 42°35' E 005°26'1615.7
2014-Jul-27 20:34N 42°41' E 005°45'1615.9
2014-Jul-27 19:33N 42°47' E 006°05'1716.5
2014-Jul-27 18:33N 42°54' E 006°26'1716.7
2014-Jul-27 17:34N 43°04' E 006°44'1717.4
2014-Jul-27 16:34N 43°18' E 006°57'1413.8
2014-Jul-27 15:34N 43°32' E 007°01'0 0.2
2014-Jul-27 14:31N 43°32' E 007°01'0 0.0
2014-Jul-27 13:25N 43°32' E 007°01'0 0.0
2014-Jul-27 12:32N 43°32' E 007°01'0 0.0
2014-Jul-27 11:32N 43°32' E 007°01'0 0.0
2014-Jul-27 10:32N 43°32' E 007°01'0 0.0
2014-Jul-27 09:32N 43°32' E 007°01'0 0.0
2014-Jul-27 08:26N 43°32' E 007°01'0 0.0
2014-Jul-27 07:26N 43°32' E 007°01'0 0.0
2014-Jul-27 06:32N 43°32' E 007°01'0 0.0
2014-Jul-27 05:32N 43°32' E 007°01'0 0.0
2014-Jul-27 04:32N 43°32' E 007°01'1 0.8
2014-Jul-27 03:33N 43°31' E 007°01'1111.2
2014-Jul-27 02:33N 43°29' E 007°16'1313.4
2014-Jul-27 01:33N 43°29' E 007°34'5513.7
2014-Jul-26 21:33N 43°33' E 008°50'1413.7
2014-Jul-26 20:33N 43°31' E 009°08'1414.0
2014-Jul-26 19:33N 43°32' E 009°28'1616.1
2014-Jul-26 18:33N 43°34' E 009°50'1615.7
2014-Jul-26 17:33N 43°31' E 010°11'5 5.2
2014-Jul-26 16:31N 43°33' E 010°18'0 0.0
2014-Jul-26 15:31N 43°33' E 010°18'0 0.0
2014-Jul-26 14:25N 43°33' E 010°18'0 0.0
2014-Jul-26 13:31N 43°33' E 010°18'0 0.0
2014-Jul-26 12:31N 43°33' E 010°18'0 0.0
2014-Jul-26 11:28N 43°33' E 010°18'0 0.0
2014-Jul-26 10:31N 43°33' E 010°18'0 0.0
2014-Jul-26 09:31N 43°33' E 010°18'0 0.0
2014-Jul-26 08:31N 43°33' E 010°18'0 0.0
2014-Jul-26 07:31N 43°33' E 010°18'0 0.0
2014-Jul-26 06:31N 43°33' E 010°18'0 0.0
2014-Jul-26 05:31N 43°33' E 010°18'0 0.3
2014-Jul-26 04:34N 43°33' E 010°18'6 6.3
2014-Jul-26 03:34N 43°28' E 010°13'1414.1
2014-Jul-26 02:34N 43°14' E 010°09'1514.6
2014-Jul-26 01:33N 42°60' E 010°05'1614.2
2014-Jul-26 00:25N 42°44' E 010°03'1314.4
2014-Jul-25 23:32N 42°34' E 010°15'1614.2
2014-Jul-25 22:23N 42°22' E 010°30'1414.2
2014-Jul-25 21:24N 42°12' E 010°43'1315.5
2014-Jul-25 20:34N 42°01' E 010°53'1514.9
2014-Jul-25 19:34N 42°01' E 011°13'132 3.1
2014-Jul-24 01:28N 41°40' E 008°19'2412.5
2014-Jul-23 23:34N 41°26' E 007°53'1212.1
2014-Jul-23 22:33N 41°19' E 007°40'1110.9
2014-Jul-23 21:33N 41°13' E 007°28'1511.0
2014-Jul-23 20:10N 41°04' E 007°11'711.1
2014-Jul-23 19:33N 41°00' E 007°04'2311.3
2014-Jul-23 17:33N 40°47' E 006°39'1511.8
2014-Jul-23 16:15N 40°39' E 006°23'3111.1
2014-Jul-23 13:28N 40°21' E 005°50'1211.7
2014-Jul-23 12:26N 40°14' E 005°36'1111.5
2014-Jul-23 11:31N 40°08' E 005°25'2411.6
2014-Jul-23 09:29N 39°54' E 004°60'1411.5
2014-Jul-23 08:18N 39°46' E 004°45'1111.1
2014-Jul-23 07:19N 39°40' E 004°34'911.0
2014-Jul-23 06:32N 39°36' E 004°24'1111.0
2014-Jul-23 05:32N 39°31' E 004°12'1111.2
2014-Jul-23 04:33N 39°26' E 003°59'1211.2
2014-Jul-23 03:28N 39°20' E 003°45'1011.4
2014-Jul-23 02:33N 39°15' E 003°33'1111.3
2014-Jul-23 01:33N 39°10' E 003°20'1212.1
2014-Jul-23 00:33N 39°04' E 003°06'1211.6
2014-Jul-22 23:33N 39°02' E 002°52'1212.0
2014-Jul-22 22:33N 39°13' E 002°46'1313.2
2014-Jul-22 21:33N 39°26' E 002°41'8 7.5
2014-Jul-22 20:31N 39°33' E 002°38'0 0.0
2014-Jul-22 19:31N 39°33' E 002°38'0 0.0
2014-Jul-22 18:31N 39°33' E 002°38'0 0.0
2014-Jul-22 17:31N 39°33' E 002°38'0 0.0
2014-Jul-22 16:31N 39°33' E 002°38'0 0.0
2014-Jul-22 15:31N 39°33' E 002°38'0 0.0
2014-Jul-22 14:31N 39°33' E 002°38'0 0.0
2014-Jul-22 13:31N 39°33' E 002°38'0 0.0
2014-Jul-22 12:31N 39°33' E 002°38'0 0.0
2014-Jul-22 11:31N 39°33' E 002°38'0 0.0
2014-Jul-22 10:31N 39°33' E 002°38'0 0.0
2014-Jul-22 09:31N 39°33' E 002°38'0 0.0
2014-Jul-22 08:31N 39°33' E 002°38'0 0.0
2014-Jul-22 07:31N 39°33' E 002°38'0 0.0
2014-Jul-22 06:31N 39°33' E 002°38'0 0.0
2014-Jul-22 05:31N 39°33' E 002°38'0 0.0
2014-Jul-22 04:31N 39°33' E 002°38'0 0.1
2014-Jul-22 03:33N 39°33' E 002°38'6 6.2
2014-Jul-22 02:33N 39°27' E 002°35'1312.6
2014-Jul-22 01:33N 39°25' E 002°19'1212.5
2014-Jul-22 00:33N 39°24' E 002°03'1313.2
2014-Jul-21 23:33N 39°24' E 001°46'1313.1
2014-Jul-21 22:33N 39°25' E 001°29'3613.2
2014-Jul-21 19:51N 39°25' E 000°43'3013.3
2014-Jul-21 17:33N 39°25' E 000°03'1514.7
2014-Jul-21 16:33N 39°25' W 000°16'4 3.8
2014-Jul-21 15:31N 39°27' W 000°19'0 0.0
2014-Jul-21 14:28N 39°27' W 000°19'0 0.0
2014-Jul-21 13:31N 39°27' W 000°19'0 0.0
2014-Jul-21 12:31N 39°27' W 000°20'0 0.0
2014-Jul-21 11:31N 39°27' W 000°19'0 0.0
2014-Jul-21 10:29N 39°27' W 000°20'0 0.0
2014-Jul-21 09:32N 39°27' W 000°20'0 0.0
2014-Jul-21 08:29N 39°27' W 000°20'0 0.0
2014-Jul-21 07:32N 39°27' W 000°19'0 0.0
2014-Jul-21 06:32N 39°27' W 000°19'0 0.1
2014-Jul-21 05:33N 39°27' W 000°19'9 8.8
2014-Jul-21 04:29N 39°22' W 000°10'3913.1
2014-Jul-21 01:32N 38°53' E 000°24'1111.4
2014-Jul-21 00:33N 38°42' E 000°27'1512.6
2014-Jul-20 23:20N 38°29' E 000°17'2714.7
2014-Jul-20 21:28N 38°07' W 000°03'1412.0
2014-Jul-20 20:17N 37°55' W 000°13'5 6.1
2014-Jul-20 19:32N 37°51' W 000°16'1716.4
2014-Jul-20 18:28N 37°37' W 000°29'6 6.8
2014-Jul-20 17:33N 37°31' W 000°33'1615.9
2014-Jul-20 16:32N 37°31' W 000°53'32 2.3
2014-Jul-20 02:32N 37°05' W 001°16'  
Track history (hours):
 
Tides and Currents Weather Stations Pressure Air Temp Water Temp Dewpoint Dewpoint Depression Visibility Wind Speed Wind Dir Waves Ship Positions

Island Escape

Operator: V Ships Leisure SAM

Last reported at 2014-Jul-30 02:14 UTC. Time now 2014-Jul-30 23:27 UTC.
Position N 38°56' E 003°55'.

Length 185 m; draft 7.3 m.

Type: Passenger vessel. MMSI: 311368000.

Date/timePositionNaut miles runAvg speedWind from/ knotsBaromVisibWave heightAir tempDewpointWater temp
2014-Jul-30 02:14N 38°56' E 003°55'1116.1
2014-Jul-30 01:33N 38°57' E 003°41'1616.2
2014-Jul-30 00:33N 38°59' E 003°20'1616.4
2014-Jul-29 23:33N 39°01' E 002°59'1414.5
2014-Jul-29 22:33N 39°11' E 002°45'1514.8
2014-Jul-29 21:33N 39°25' E 002°40'8 8.1
2014-Jul-29 20:31N 39°33' E 002°38'0 0.0
2014-Jul-29 19:31N 39°33' E 002°38'0 0.0
2014-Jul-29 18:31N 39°33' E 002°38'0 0.0
2014-Jul-29 17:31N 39°33' E 002°38'0 0.0
2014-Jul-29 16:31N 39°33' E 002°38'0 0.0
2014-Jul-29 15:31N 39°33' E 002°38'0 0.0
2014-Jul-29 14:31N 39°33' E 002°38'0 0.0
2014-Jul-29 13:31N 39°33' E 002°38'0 0.0
2014-Jul-29 12:31N 39°33' E 002°38'0 0.0
2014-Jul-29 11:31N 39°33' E 002°38'0 0.0
2014-Jul-29 10:31N 39°33' E 002°38'0 0.0
2014-Jul-29 09:28N 39°33' E 002°38'0 0.0
2014-Jul-29 08:31N 39°33' E 002°38'0 0.0
2014-Jul-29 07:31N 39°33' E 002°38'0 0.0
2014-Jul-29 06:31N 39°33' E 002°38'0 0.0
2014-Jul-29 05:31N 39°33' E 002°38'0 0.0
2014-Jul-29 04:31N 39°33' E 002°38'0 0.2
2014-Jul-29 03:33N 39°33' E 002°38'6 6.1
2014-Jul-29 02:33N 39°27' E 002°35'1212.2
2014-Jul-29 01:33N 39°30' E 002°20'1111.2
2014-Jul-29 00:33N 39°41' E 002°17'1312.6
2014-Jul-28 23:33N 39°53' E 002°21'1313.3
2014-Jul-28 22:33N 40°06' E 002°25'1313.5
2014-Jul-28 21:33N 40°19' E 002°29'1313.0
2014-Jul-28 20:33N 40°32' E 002°35'1212.3
2014-Jul-28 19:33N 40°43' E 002°40'1716.8
2014-Jul-28 18:33N 40°59' E 002°47'1717.1
2014-Jul-28 17:33N 41°16' E 002°53'36 3.2
2014-Jul-28 06:14N 41°51' E 003°07'7 9.2
2014-Jul-28 05:26N 41°52' E 003°17'1112.5
2014-Jul-28 04:33N 41°57' E 003°30'1413.4
2014-Jul-28 03:30N 42°02' E 003°48'1313.8
2014-Jul-28 02:32N 42°08' E 004°04'1513.6
2014-Jul-28 01:26N 42°14' E 004°22'1313.5
2014-Jul-28 00:26N 42°19' E 004°39'1213.6
2014-Jul-27 23:32N 42°24' E 004°54'1313.7
2014-Jul-27 22:33N 42°30' E 005°11'1212.1
2014-Jul-27 21:33N 42°35' E 005°26'1615.7
2014-Jul-27 20:34N 42°41' E 005°45'1615.9
2014-Jul-27 19:33N 42°47' E 006°05'1716.5
2014-Jul-27 18:33N 42°54' E 006°26'1716.7
2014-Jul-27 17:34N 43°04' E 006°44'1717.4
2014-Jul-27 16:34N 43°18' E 006°57'1413.8
2014-Jul-27 15:34N 43°32' E 007°01'0 0.2
2014-Jul-27 14:31N 43°32' E 007°01'0 0.0
2014-Jul-27 13:25N 43°32' E 007°01'0 0.0
2014-Jul-27 12:32N 43°32' E 007°01'0 0.0
2014-Jul-27 11:32N 43°32' E 007°01'0 0.0
2014-Jul-27 10:32N 43°32' E 007°01'0 0.0
2014-Jul-27 09:32N 43°32' E 007°01'0 0.0
2014-Jul-27 08:26N 43°32' E 007°01'0 0.0
2014-Jul-27 07:26N 43°32' E 007°01'0 0.0
2014-Jul-27 06:32N 43°32' E 007°01'0 0.0
2014-Jul-27 05:32N 43°32' E 007°01'0 0.0
2014-Jul-27 04:32N 43°32' E 007°01'1 0.8
2014-Jul-27 03:33N 43°31' E 007°01'1111.2
2014-Jul-27 02:33N 43°29' E 007°16'1313.4
2014-Jul-27 01:33N 43°29' E 007°34'5513.7
2014-Jul-26 21:33N 43°33' E 008°50'1413.7
2014-Jul-26 20:33N 43°31' E 009°08'1414.0
2014-Jul-26 19:33N 43°32' E 009°28'1616.1
2014-Jul-26 18:33N 43°34' E 009°50'1615.7
2014-Jul-26 17:33N 43°31' E 010°11'5 5.2
2014-Jul-26 16:31N 43°33' E 010°18'0 0.0
2014-Jul-26 15:31N 43°33' E 010°18'0 0.0
2014-Jul-26 14:25N 43°33' E 010°18'0 0.0
2014-Jul-26 13:31N 43°33' E 010°18'0 0.0
2014-Jul-26 12:31N 43°33' E 010°18'0 0.0
2014-Jul-26 11:28N 43°33' E 010°18'0 0.0
2014-Jul-26 10:31N 43°33' E 010°18'0 0.0
2014-Jul-26 09:31N 43°33' E 010°18'0 0.0
2014-Jul-26 08:31N 43°33' E 010°18'0 0.0
2014-Jul-26 07:31N 43°33' E 010°18'0 0.0
2014-Jul-26 06:31N 43°33' E 010°18'0 0.0
2014-Jul-26 05:31N 43°33' E 010°18'0 0.3
2014-Jul-26 04:34N 43°33' E 010°18'6 6.3
2014-Jul-26 03:34N 43°28' E 010°13'1414.1
2014-Jul-26 02:34N 43°14' E 010°09'1514.6
2014-Jul-26 01:33N 42°60' E 010°05'1614.2
2014-Jul-26 00:25N 42°44' E 010°03'1314.4
2014-Jul-25 23:32N 42°34' E 010°15'1614.2
2014-Jul-25 22:23N 42°22' E 010°30'1414.2
2014-Jul-25 21:24N 42°12' E 010°43'1315.5
2014-Jul-25 20:34N 42°01' E 010°53'1514.9
2014-Jul-25 19:34N 42°01' E 011°13'132 3.1
2014-Jul-24 01:28N 41°40' E 008°19'2412.5
2014-Jul-23 23:34N 41°26' E 007°53'1212.1
2014-Jul-23 22:33N 41°19' E 007°40'1110.9
2014-Jul-23 21:33N 41°13' E 007°28'1511.0
2014-Jul-23 20:10N 41°04' E 007°11'711.1
2014-Jul-23 19:33N 41°00' E 007°04'2311.3
2014-Jul-23 17:33N 40°47' E 006°39'1511.8
2014-Jul-23 16:15N 40°39' E 006°23'3111.1
2014-Jul-23 13:28N 40°21' E 005°50'1211.7
2014-Jul-23 12:26N 40°14' E 005°36'1111.5
2014-Jul-23 11:31N 40°08' E 005°25'2411.6
2014-Jul-23 09:29N 39°54' E 004°60'1411.5
2014-Jul-23 08:18N 39°46' E 004°45'1111.1
2014-Jul-23 07:19N 39°40' E 004°34'911.0
2014-Jul-23 06:32N 39°36' E 004°24'1111.0
2014-Jul-23 05:32N 39°31' E 004°12'1111.2
2014-Jul-23 04:33N 39°26' E 003°59'1211.2
2014-Jul-23 03:28N 39°20' E 003°45'1011.4
2014-Jul-23 02:33N 39°15' E 003°33'1111.3
2014-Jul-23 01:33N 39°10' E 003°20'1212.1
2014-Jul-23 00:33N 39°04' E 003°06'1211.6
2014-Jul-22 23:33N 39°02' E 002°52'1212.0
2014-Jul-22 22:33N 39°13' E 002°46'1313.2
2014-Jul-22 21:33N 39°26' E 002°41'8 7.5
2014-Jul-22 20:31N 39°33' E 002°38'0 0.0
2014-Jul-22 19:31N 39°33' E 002°38'0 0.0
2014-Jul-22 18:31N 39°33' E 002°38'0 0.0
2014-Jul-22 17:31N 39°33' E 002°38'0 0.0
2014-Jul-22 16:31N 39°33' E 002°38'0 0.0
2014-Jul-22 15:31N 39°33' E 002°38'0 0.0
2014-Jul-22 14:31N 39°33' E 002°38'0 0.0
2014-Jul-22 13:31N 39°33' E 002°38'0 0.0
2014-Jul-22 12:31N 39°33' E 002°38'0 0.0
2014-Jul-22 11:31N 39°33' E 002°38'0 0.0
2014-Jul-22 10:31N 39°33' E 002°38'0 0.0
2014-Jul-22 09:31N 39°33' E 002°38'0 0.0
2014-Jul-22 08:31N 39°33' E 002°38'0 0.0
2014-Jul-22 07:31N 39°33' E 002°38'0 0.0
2014-Jul-22 06:31N 39°33' E 002°38'0 0.0
2014-Jul-22 05:31N 39°33' E 002°38'0 0.0
2014-Jul-22 04:31N 39°33' E 002°38'0 0.1
2014-Jul-22 03:33N 39°33' E 002°38'6 6.2
2014-Jul-22 02:33N 39°27' E 002°35'1312.6
2014-Jul-22 01:33N 39°25' E 002°19'1212.5
2014-Jul-22 00:33N 39°24' E 002°03'1313.2
2014-Jul-21 23:33N 39°24' E 001°46'1313.1
2014-Jul-21 22:33N 39°25' E 001°29'3613.2
2014-Jul-21 19:51N 39°25' E 000°43'3013.3
2014-Jul-21 17:33N 39°25' E 000°03'1514.7
2014-Jul-21 16:33N 39°25' W 000°16'4 3.8
2014-Jul-21 15:31N 39°27' W 000°19'0 0.0
2014-Jul-21 14:28N 39°27' W 000°19'0 0.0
2014-Jul-21 13:31N 39°27' W 000°19'0 0.0
2014-Jul-21 12:31N 39°27' W 000°20'0 0.0
2014-Jul-21 11:31N 39°27' W 000°19'0 0.0
2014-Jul-21 10:29N 39°27' W 000°20'0 0.0
2014-Jul-21 09:32N 39°27' W 000°20'0 0.0
2014-Jul-21 08:29N 39°27' W 000°20'0 0.0
2014-Jul-21 07:32N 39°27' W 000°19'0 0.0
2014-Jul-21 06:32N 39°27' W 000°19'0 0.1
2014-Jul-21 05:33N 39°27' W 000°19'9 8.8
2014-Jul-21 04:29N 39°22' W 000°10'3913.1
2014-Jul-21 01:32N 38°53' E 000°24'1111.4
2014-Jul-21 00:33N 38°42' E 000°27'1512.6
2014-Jul-20 23:20N 38°29' E 000°17'2714.7
2014-Jul-20 21:28N 38°07' W 000°03'1412.0
2014-Jul-20 20:17N 37°55' W 000°13'5 6.1
2014-Jul-20 19:32N 37°51' W 000°16'1716.4
2014-Jul-20 18:28N 37°37' W 000°29'6 6.8
2014-Jul-20 17:33N 37°31' W 000°33'1615.9
2014-Jul-20 16:32N 37°31' W 000°53'32 2.3
2014-Jul-20 02:32N 37°05' W 001°16'  

Dump ship's entire track history